Time;durP1;ratioP1;P1;durP2;ratioP2;P2;SDS_P1;SDS_P2;PMS_P1;PMS_P2;Temp;Humidity;BMP_temperature;BMP_pressure;BME280_temperature;BME280_humidity;BME280_pressure;Samples;Min_cycle;Max_cycle;Signal;HPM_P1;HPM_P2
2021/11/05 13:19:07;;;;;;;6.60;6.00;;;12.00;98.90;;;;;;5073500;28;20222;-49
2021/11/05 13:21:33;;;;;;;5.82;5.32;;;12.20;98.50;;;;;;5088011;28;20207;-49
2021/11/05 13:24:02;;;;;;;7.13;6.43;;;12.50;97.90;;;;;;5077194;28;20671;-49
2021/11/05 13:26:32;;;;;;;7.60;5.90;;;12.30;98.00;;;;;;5086813;28;20429;-48
2021/11/05 13:28:57;;;;;;;7.88;5.90;;;12.30;98.20;;;;;;5080183;28;20196;-49
2021/11/05 13:31:23;;;;;;;5.80;5.30;;;12.20;98.20;;;;;;5078363;28;20174;-49
2021/11/05 13:33:51;;;;;;;8.53;7.70;;;12.50;98.10;;;;;;5079665;28;20600;-49
2021/11/05 13:36:18;;;;;;;7.00;6.30;;;12.60;98.00;;;;;;5080301;28;20197;-50
2021/11/05 13:38:46;;;;;;;5.65;5.15;;;12.40;98.80;;;;;;5083993;28;20168;-50
2021/11/05 13:41:24;;;;;;;6.45;5.65;;;11.90;99.10;;;;;;5082218;28;20198;-49
2021/11/05 13:43:52;;;;;;;6.63;5.95;;;12.20;98.60;;;;;;5090216;28;20305;-50
2021/11/05 13:46:23;;;;;;;7.55;6.88;;;12.30;98.70;;;;;;5087999;28;20191;-49
2021/11/05 13:48:52;;;;;;;7.07;6.38;;;11.90;99.30;;;;;;5085994;28;20353;-49
2021/11/05 13:51:20;;;;;;;7.72;6.97;;;12.10;99.60;;;;;;5084887;28;20297;-50
2021/11/05 13:54:14;;;;;;;8.13;7.32;;;11.80;99.90;;;;;;5083054;28;20188;-49
2021/11/05 13:56:45;;;;;;;7.47;6.68;;;11.70;99.90;;;;;;5080074;28;20557;-50
2021/11/05 13:59:28;;;;;;;8.07;6.78;;;11.80;99.90;;;;;;5089809;28;20178;-49
2021/11/05 14:01:58;;;;;;;7.50;6.80;;;11.60;99.90;;;;;;5083014;28;20204;-50
2021/11/05 14:04:25;;;;;;;7.85;7.07;;;11.50;99.90;;;;;;5076534;28;20241;-49
2021/11/05 14:06:54;;;;;;;12.95;8.60;;;11.70;99.90;;;;;;5084916;28;20181;-49
2021/11/05 14:09:25;;;;;;;9.10;8.15;;;11.70;99.90;;;;;;5088974;28;20197;-49
2021/11/05 14:11:55;;;;;;;11.85;9.40;;;11.60;99.90;;;;;;5078365;28;20659;-49
2021/11/05 14:14:24;;;;;;;8.35;7.55;;;11.80;99.90;;;;;;5090505;28;20663;-50
2021/11/05 14:17:02;;;;;;;10.43;8.95;;;11.90;99.90;;;;;;5081967;28;20224;-50
2021/11/05 14:19:30;;;;;;;9.10;8.20;;;11.60;99.90;;;;;;5088614;28;20608;-50
2021/11/05 14:22:00;;;;;;;9.05;8.07;;;11.50;99.90;;;;;;5084540;28;20559;-49
2021/11/05 14:24:32;;;;;;;8.40;7.60;;;11.40;99.90;;;;;;5081401;28;20622;-50
2021/11/05 14:27:03;;;;;;;8.60;7.50;;;11.40;99.90;;;;;;5077373;28;20185;-50
2021/11/05 14:29:33;;;;;;;8.98;8.07;;;11.10;99.90;;;;;;5080049;28;20196;-49
2021/11/05 14:32:02;;;;;;;9.25;7.57;;;11.00;99.90;;;;;;5082520;28;20222;-49
2021/11/05 14:34:45;;;;;;;7.90;7.13;;;11.20;99.90;;;;;;5075816;28;20534;-50
2021/11/05 14:37:17;;;;;;;9.63;8.63;;;11.00;99.90;;;;;;5077141;28;20177;-49
2021/11/05 14:39:50;;;;;;;9.85;8.50;;;11.10;99.90;;;;;;5082467;28;20204;-50
2021/11/05 14:42:19;;;;;;;9.98;8.85;;;11.30;99.90;;;;;;5078766;28;20269;-50
2021/11/05 14:44:45;;;;;;;9.93;8.15;;;11.20;99.90;;;;;;5083118;28;20213;-49
2021/11/05 14:47:11;;;;;;;10.47;9.37;;;11.30;99.90;;;;;;5084346;28;20187;-49
2021/11/05 14:49:37;;;;;;;9.45;8.52;;;11.30;99.90;;;;;;5086823;28;20488;-49
2021/11/05 14:52:07;;;;;;;9.43;8.20;;;11.20;99.90;;;;;;5078286;28;20213;-49
2021/11/05 14:54:33;;;;;;;12.88;9.50;;;11.30;99.90;;;;;;5077819;28;20586;-50
2021/11/05 14:57:20;;;;;;;9.50;8.50;;;11.20;99.90;;;;;;5078148;28;20257;-49
2021/11/05 14:59:49;;;;;;;10.98;8.75;;;11.00;99.90;;;;;;5072568;28;20269;-49
2021/11/05 15:02:37;;;;;;;9.52;8.05;;;11.00;99.90;;;;;;5079160;28;20189;-48
2021/11/05 15:05:26;;;;;;;9.98;8.38;;;11.10;99.90;;;;;;5082576;28;20214;-50
2021/11/05 15:07:55;;;;;;;10.00;9.00;;;11.00;99.90;;;;;;5080159;28;20178;-49
2021/11/05 15:10:22;;;;;;;9.98;8.98;;;10.90;99.90;;;;;;5077246;28;20229;-49
2021/11/05 15:12:49;;;;;;;9.80;8.75;;;10.60;99.90;;;;;;5088368;28;20181;-49
2021/11/05 15:15:15;;;;;;;10.40;9.10;;;10.70;99.90;;;;;;5081696;28;20267;-49
2021/11/05 15:17:40;;;;;;;9.30;8.40;;;10.80;99.90;;;;;;5089258;28;20201;-49
2021/11/05 15:20:07;;;;;;;11.60;9.20;;;10.70;99.90;;;;;;5073778;28;20472;-50
2021/11/05 15:22:33;;;;;;;10.18;8.63;;;10.70;99.90;;;;;;5083048;28;20457;-50
2021/11/05 15:24:58;;;;;;;11.90;9.57;;;10.60;99.90;;;;;;5082848;28;20216;-51
2021/11/05 15:27:25;;;;;;;12.80;10.93;;;10.50;99.90;;;;;;5088027;28;20185;-50
2021/11/05 15:29:51;;;;;;;8.20;7.40;;;10.40;99.90;;;;;;5080825;28;20219;-50
2021/11/05 15:32:17;;;;;;;10.17;9.10;;;10.40;99.90;;;;;;5082597;28;20177;-50
2021/11/05 15:34:42;;;;;;;13.37;9.13;;;10.40;99.90;;;;;;5083753;28;20190;-50
2021/11/05 15:37:08;;;;;;;10.70;9.30;;;10.40;99.90;;;;;;5084398;28;20189;-50
2021/11/05 15:39:33;;;;;;;10.60;9.47;;;10.50;99.90;;;;;;5079572;28;20205;-50
2021/11/05 15:41:59;;;;;;;12.40;9.20;;;10.50;99.90;;;;;;5081157;28;20200;-50
2021/11/05 15:44:25;;;;;;;11.63;10.00;;;10.40;99.90;;;;;;5079336;28;20638;-49
2021/11/05 15:46:50;;;;;;;12.40;10.37;;;10.10;99.90;;;;;;5086019;28;20252;-50
2021/11/05 15:49:16;;;;;;;13.10;9.90;;;10.20;99.90;;;;;;5088853;28;20208;-49
2021/11/05 15:51:42;;;;;;;10.47;9.47;;;10.20;99.90;;;;;;5075143;28;20181;-48
2021/11/05 15:54:08;;;;;;;12.33;10.93;;;9.90;99.90;;;;;;5084389;28;20176;-49
2021/11/05 15:56:34;;;;;;;14.52;10.90;;;9.80;99.90;;;;;;5083935;28;20181;-49
2021/11/05 15:59:00;;;;;;;14.97;12.20;;;9.80;99.90;;;;;;5086617;28;20264;-49
2021/11/05 16:01:25;;;;;;;12.47;10.53;;;9.60;99.90;;;;;;5080691;28;20185;-50
2021/11/05 16:03:51;;;;;;;13.80;12.30;;;10.00;99.90;;;;;;5081466;28;20882;-51
2021/11/05 16:06:18;;;;;;;12.10;10.70;;;9.80;99.90;;;;;;5087115;28;20181;-51
2021/11/05 16:08:44;;;;;;;13.18;11.05;;;10.10;99.90;;;;;;5086469;28;20267;-50
2021/11/05 16:11:09;;;;;;;15.07;11.53;;;9.70;99.90;;;;;;5085221;28;20284;-51
2021/11/05 16:13:35;;;;;;;13.70;10.40;;;9.80;99.90;;;;;;5086686;28;20493;-50
2021/11/05 16:16:01;;;;;;;13.23;10.47;;;9.90;99.90;;;;;;5087850;28;20189;-50
2021/11/05 16:18:27;;;;;;;11.43;9.80;;;9.70;99.90;;;;;;5084505;28;20515;-48
2021/11/05 16:20:53;;;;;;;18.33;11.40;;;10.00;99.90;;;;;;5085411;28;20455;-49
2021/11/05 16:23:18;;;;;;;13.57;11.47;;;9.70;99.90;;;;;;5079855;28;20188;-49
2021/11/05 16:25:44;;;;;;;13.33;10.63;;;9.60;99.90;;;;;;5083036;28;20205;-50
2021/11/05 16:28:10;;;;;;;12.57;11.27;;;9.80;99.90;;;;;;5078487;28;20174;-50
2021/11/05 16:30:36;;;;;;;14.60;11.00;;;9.80;99.90;;;;;;5081554;28;20254;-50
2021/11/05 16:33:03;;;;;;;13.47;10.90;;;10.00;99.90;;;;;;5088972;28;20437;-50
2021/11/05 16:35:29;;;;;;;13.65;10.55;;;9.90;99.90;;;;;;5082273;28;20500;-52
2021/11/05 16:37:55;;;;;;;11.80;10.52;;;10.00;99.90;;;;;;5080997;28;20233;-50
2021/11/05 16:40:23;;;;;;;12.55;10.85;;;9.70;99.90;;;;;;5081585;28;20247;-49
2021/11/05 16:42:50;;;;;;;12.35;11.05;;;9.70;99.90;;;;;;5088042;28;20193;-49
2021/11/05 16:45:20;;;;;;;19.80;15.40;;;9.60;99.90;;;;;;5083814;28;20239;-50
2021/11/05 16:47:46;;;;;;;12.70;11.27;;;9.20;99.90;;;;;;5084978;28;20188;-49
2021/11/05 16:50:14;;;;;;;14.00;11.60;;;9.90;99.90;;;;;;5086228;28;20200;-49
2021/11/05 16:52:40;;;;;;;12.68;11.32;;;9.30;99.90;;;;;;5087799;28;20180;-49
2021/11/05 16:55:07;;;;;;;12.70;11.50;;;9.80;99.90;;;;;;5076935;28;20259;-49
2021/11/05 16:57:34;;;;;;;12.60;10.70;;;9.90;99.90;;;;;;5084835;28;20530;-50
2021/11/05 17:00:02;;;;;;;15.75;13.38;;;9.70;99.90;;;;;;5085180;28;20213;-50
2021/11/05 17:02:28;;;;;;;13.93;10.73;;;9.20;99.90;;;;;;5081750;28;20185;-49
2021/11/05 17:04:53;;;;;;;12.27;11.07;;;9.40;99.90;;;;;;5087185;28;20211;-49
2021/11/05 17:07:19;;;;;;;15.50;12.57;;;9.50;99.90;;;;;;5085744;28;20259;-49
2021/11/05 17:09:45;;;;;;;13.83;11.80;;;9.30;99.90;;;;;;5077048;28;20201;-49
2021/11/05 17:12:11;;;;;;;13.93;11.80;;;9.20;99.90;;;;;;5080660;28;20176;-49
2021/11/05 17:14:36;;;;;;;13.43;10.67;;;9.40;99.90;;;;;;5080826;28;20487;-49
2021/11/05 17:17:02;;;;;;;13.50;11.57;;;9.10;99.90;;;;;;5083283;28;20279;-49
2021/11/05 17:19:28;;;;;;;14.40;12.17;;;9.10;99.90;;;;;;5078900;28;20207;-49
2021/11/05 17:21:56;;;;;;;15.57;12.13;;;9.10;99.90;;;;;;5083476;28;20437;-49
2021/11/05 17:24:22;;;;;;;15.98;13.43;;;8.90;99.90;;;;;;5088520;28;20431;-49
2021/11/05 17:26:49;;;;;;;17.23;12.50;;;9.00;99.90;;;;;;5082405;28;20583;-49
2021/11/05 17:29:15;;;;;;;14.60;13.05;;;9.00;99.90;;;;;;5089489;28;20200;-48
2021/11/05 17:31:41;;;;;;;15.63;13.80;;;9.00;99.90;;;;;;5078024;28;20692;-49
2021/11/05 17:34:07;;;;;;;15.48;12.73;;;9.10;99.90;;;;;;5085961;28;20201;-50
2021/11/05 17:36:33;;;;;;;13.60;11.60;;;8.90;99.90;;;;;;5079654;28;20185;-50
2021/11/05 17:38:59;;;;;;;18.38;11.43;;;8.90;99.90;;;;;;5079606;28;20648;-50
2021/11/05 17:41:25;;;;;;;18.90;11.67;;;8.70;99.90;;;;;;5074170;28;20199;-50
2021/11/05 17:43:51;;;;;;;14.55;11.57;;;8.50;99.90;;;;;;5089093;28;20420;-50
2021/11/05 17:46:17;;;;;;;14.77;12.65;;;8.50;99.90;;;;;;5086616;28;20177;-50
2021/11/05 17:48:43;;;;;;;15.15;12.57;;;8.40;99.90;;;;;;5083366;28;20215;-50
2021/11/05 17:51:09;;;;;;;15.70;12.83;;;8.50;99.90;;;;;;5074583;28;20276;-50
2021/11/05 17:53:34;;;;;;;17.83;12.55;;;8.00;99.90;;;;;;5079645;28;20274;-50
2021/11/05 17:56:00;;;;;;;15.37;13.00;;;8.30;99.90;;;;;;5082423;28;20233;-50
2021/11/05 17:58:26;;;;;;;17.65;14.88;;;8.40;99.90;;;;;;5089498;28;20199;-50
2021/11/05 18:00:53;;;;;;;18.05;14.00;;;8.40;99.90;;;;;;5079204;28;20212;-50
2021/11/05 18:03:19;;;;;;;17.38;13.55;;;8.10;99.90;;;;;;5075150;28;20669;-50
2021/11/05 18:05:51;;;;;;;17.43;12.93;;;8.40;99.90;;;;;;5081559;28;20211;-49
2021/11/05 18:08:18;;;;;;;18.38;14.27;;;8.10;99.90;;;;;;5073862;28;20485;-50
2021/11/05 18:10:45;;;;;;;18.55;12.90;;;8.30;99.90;;;;;;5082198;28;20227;-50
2021/11/05 18:13:12;;;;;;;14.80;12.50;;;8.30;99.90;;;;;;5082759;28;20188;-50
2021/11/05 18:15:46;;;;;;;18.65;14.30;;;7.90;99.90;;;;;;5082496;28;20188;-50
2021/11/05 18:18:12;;;;;;;18.58;15.30;;;8.00;99.90;;;;;;5090310;28;20611;-50
2021/11/05 18:20:39;;;;;;;19.37;14.40;;;7.80;99.90;;;;;;5087188;28;20208;-50
2021/11/05 18:23:06;;;;;;;17.90;13.35;;;8.00;99.90;;;;;;5083887;28;20946;-50
2021/11/05 18:25:32;;;;;;;19.35;14.52;;;7.70;99.90;;;;;;5077829;28;20604;-49
2021/11/05 18:27:58;;;;;;;17.17;14.20;;;7.80;99.90;;;;;;5089423;28;20180;-50
2021/11/05 18:30:26;;;;;;;18.98;14.13;;;7.90;99.90;;;;;;5087636;28;20504;-50
2021/11/05 18:32:52;;;;;;;16.25;13.75;;;7.70;99.90;;;;;;5087085;28;20191;-50
2021/11/05 18:35:18;;;;;;;20.77;15.33;;;7.60;99.90;;;;;;5083686;28;20712;-50
2021/11/05 18:37:45;;;;;;;20.25;14.80;;;7.40;99.90;;;;;;5074970;28;20470;-50
2021/11/05 18:40:11;;;;;;;21.90;17.58;;;7.70;99.90;;;;;;5078365;28;20213;-50
2021/11/05 18:42:37;;;;;;;18.98;15.75;;;7.70;99.90;;;;;;5083103;28;20184;-49
2021/11/05 18:45:05;;;;;;;19.15;15.25;;;7.10;99.90;;;;;;5078508;28;20204;-50
2021/11/05 18:47:31;;;;;;;21.90;17.55;;;7.60;99.90;;;;;;5079877;28;20179;-50
2021/11/05 18:49:57;;;;;;;19.63;16.17;;;7.50;99.90;;;;;;5086400;28;20200;-50
2021/11/05 18:52:23;;;;;;;18.33;15.57;;;7.70;99.90;;;;;;5084538;28;20519;-49
2021/11/05 18:54:50;;;;;;;19.23;15.93;;;7.60;99.90;;;;;;5086273;28;20192;-50
2021/11/05 18:57:16;;;;;;;20.95;15.93;;;7.80;99.90;;;;;;5091886;28;20191;-50
2021/11/05 18:59:42;;;;;;;17.30;15.50;;;7.70;99.90;;;;;;5076313;28;20605;-50
2021/11/05 19:02:08;;;;;;;17.48;15.13;;;7.70;99.90;;;;;;5082250;28;20435;-50
2021/11/05 19:04:35;;;;;;;18.80;15.13;;;7.60;99.90;;;;;;5086486;28;20196;-50
2021/11/05 19:07:00;;;;;;;19.55;15.32;;;7.60;99.90;;;;;;5085422;28;20210;-49
2021/11/05 19:09:26;;;;;;;16.47;13.43;;;7.60;99.90;;;;;;5084042;28;20246;-50
2021/11/05 19:11:52;;;;;;;16.47;13.93;;;7.60;99.90;;;;;;5089074;28;20216;-50
2021/11/05 19:14:19;;;;;;;31.47;17.83;;;7.60;99.90;;;;;;5084118;28;20192;-50
2021/11/05 19:16:45;;;;;;;16.80;14.23;;;7.80;99.90;;;;;;5085825;28;20197;-50
2021/11/05 19:19:11;;;;;;;24.70;19.75;;;7.80;99.90;;;;;;5091572;28;20196;-50
2021/11/05 19:21:38;;;;;;;20.23;16.73;;;7.60;99.90;;;;;;5077661;28;20312;-49
2021/11/05 19:24:08;;;;;;;19.17;16.17;;;7.90;99.90;;;;;;5084827;28;20196;-50
2021/11/05 19:26:39;;;;;;;15.60;13.80;;;7.50;99.90;;;;;;5086635;28;20524;-49
2021/11/05 19:29:11;;;;;;;19.17;15.40;;;7.60;99.90;;;;;;5087725;28;20276;-50
2021/11/05 19:31:39;;;;;;;17.50;13.93;;;7.60;99.90;;;;;;5088297;28;20183;-50
2021/11/05 19:34:04;;;;;;;21.90;15.77;;;8.10;99.90;;;;;;5086145;28;20184;-50
2021/11/05 19:36:31;;;;;;;19.30;16.17;;;7.80;99.90;;;;;;5081520;28;20261;-50
2021/11/05 19:38:56;;;;;;;18.92;14.05;;;7.80;99.90;;;;;;5086801;28;20668;-50
2021/11/05 19:41:22;;;;;;;18.47;14.37;;;7.20;99.90;;;;;;5082562;28;20195;-49
2021/11/05 19:43:48;;;;;;;18.70;14.60;;;7.30;99.90;;;;;;5092568;28;20195;-50
2021/11/05 19:46:14;;;;;;;15.90;14.30;;;8.00;99.90;;;;;;5085308;28;20195;-50
2021/11/05 19:48:40;;;;;;;19.27;15.17;;;7.80;99.90;;;;;;5091765;28;20184;-50
2021/11/05 19:51:06;;;;;;;17.87;15.23;;;8.00;99.90;;;;;;5083159;28;20565;-50
2021/11/05 19:53:32;;;;;;;20.70;15.13;;;8.00;99.90;;;;;;5083739;28;20219;-49
2021/11/05 19:55:58;;;;;;;25.67;21.58;;;7.90;99.90;;;;;;5079674;28;20814;-49
2021/11/05 19:58:23;;;;;;;20.70;16.33;;;7.80;99.90;;;;;;5084507;28;20751;-49
2021/11/05 20:00:50;;;;;;;18.23;15.13;;;7.90;99.90;;;;;;5083734;28;20279;-49
2021/11/05 20:03:17;;;;;;;15.77;13.55;;;8.00;99.90;;;;;;5080191;28;20289;-49
2021/11/05 20:05:44;;;;;;;17.63;13.98;;;7.80;99.90;;;;;;5082813;28;20211;-49
2021/11/05 20:08:12;;;;;;;16.55;14.48;;;8.10;99.90;;;;;;5081219;28;20177;-49
2021/11/05 20:10:40;;;;;;;17.80;14.77;;;7.90;99.90;;;;;;5076201;28;21917;-49
2021/11/05 20:13:06;;;;;;;18.83;14.18;;;7.70;99.90;;;;;;5097256;28;20274;-49
2021/11/05 20:15:31;;;;;;;17.17;14.50;;;7.40;99.90;;;;;;5089114;28;20318;-49
2021/11/05 20:17:57;;;;;;;20.23;16.27;;;8.00;99.90;;;;;;5089309;28;20619;-50
2021/11/05 20:20:23;;;;;;;17.13;14.30;;;7.90;99.90;;;;;;5083457;28;20216;-49
2021/11/05 20:22:51;;;;;;;19.35;15.95;;;7.90;99.90;;;;;;5089134;28;20649;-49
2021/11/05 20:25:18;;;;;;;18.48;14.55;;;7.80;99.90;;;;;;5079570;28;20223;-49
2021/11/05 20:27:44;;;;;;;16.23;14.18;;;8.10;99.90;;;;;;5080985;28;20177;-49
2021/11/05 20:30:12;;;;;;;20.52;15.77;;;8.00;99.90;;;;;;5077523;28;20201;-49
2021/11/05 20:32:39;;;;;;;17.48;15.32;;;7.80;99.90;;;;;;5083648;28;20218;-49
2021/11/05 20:35:06;;;;;;;18.15;13.70;;;7.90;99.90;;;;;;5090102;28;20298;-49
2021/11/05 20:37:32;;;;;;;17.70;13.52;;;8.00;99.90;;;;;;5086285;28;20192;-50
2021/11/05 20:39:58;;;;;;;19.60;14.33;;;7.90;99.90;;;;;;5083266;28;20230;-49
2021/11/05 20:42:24;;;;;;;18.02;14.60;;;7.90;99.90;;;;;;5076759;28;20177;-49
2021/11/05 20:44:49;;;;;;;18.13;14.80;;;7.50;99.90;;;;;;5083727;28;20567;-49
2021/11/05 20:47:15;;;;;;;17.73;14.30;;;8.10;99.90;;;;;;5104543;28;20281;-49
2021/11/05 20:49:42;;;;;;;19.20;15.17;;;7.70;99.90;;;;;;5086357;28;20259;-49
2021/11/05 20:52:08;;;;;;;17.83;14.60;;;7.80;99.90;;;;;;5088715;28;20196;-49
2021/11/05 20:54:35;;;;;;;19.83;15.77;;;7.80;99.90;;;;;;5092317;28;20191;-49
2021/11/05 20:57:01;;;;;;;20.63;15.20;;;7.80;99.90;;;;;;5085392;28;20275;-49
2021/11/05 20:59:27;;;;;;;21.53;15.80;;;7.90;99.90;;;;;;5085903;28;20747;-49
2021/11/05 21:01:52;;;;;;;21.90;16.30;;;7.80;99.90;;;;;;5079281;28;20514;-49
2021/11/05 21:04:18;;;;;;;20.63;15.47;;;8.10;99.90;;;;;;5091615;28;20195;-49
2021/11/05 21:06:44;;;;;;;17.77;13.90;;;8.10;99.90;;;;;;5090816;28;20180;-49
2021/11/05 21:09:12;;;;;;;16.27;13.93;;;8.00;99.90;;;;;;5088412;28;20195;-49
2021/11/05 21:11:39;;;;;;;17.88;14.60;;;7.90;99.90;;;;;;5076245;28;20204;-49
2021/11/05 21:14:06;;;;;;;16.17;13.88;;;8.30;99.90;;;;;;5083422;28;20652;-50
2021/11/05 21:16:32;;;;;;;17.48;14.48;;;7.90;99.90;;;;;;5078460;28;20187;-49
2021/11/05 21:18:57;;;;;;;18.02;14.75;;;8.10;99.90;;;;;;5088430;28;20219;-49
2021/11/05 21:21:24;;;;;;;18.80;14.90;;;8.00;99.90;;;;;;5075207;28;20176;-49
2021/11/05 21:23:50;;;;;;;18.30;14.38;;;8.00;99.90;;;;;;5083078;28;20271;-49
2021/11/05 21:26:16;;;;;;;17.88;15.82;;;7.80;99.90;;;;;;5089107;28;20189;-49
2021/11/05 21:28:43;;;;;;;16.67;13.20;;;8.10;99.90;;;;;;5087779;28;20183;-49
2021/11/05 21:31:10;;;;;;;15.30;13.45;;;7.90;99.90;;;;;;5085433;28;20711;-49
2021/11/05 21:33:36;;;;;;;17.98;13.45;;;7.90;99.90;;;;;;5085222;28;20537;-49
2021/11/05 21:36:04;;;;;;;17.00;13.80;;;7.90;99.90;;;;;;5084676;28;20682;-49
2021/11/05 21:38:30;;;;;;;17.55;14.63;;;8.00;99.90;;;;;;5087896;28;20645;-50
2021/11/05 21:40:56;;;;;;;17.13;14.30;;;8.10;99.90;;;;;;5082613;28;20214;-49
2021/11/05 21:43:22;;;;;;;17.70;13.00;;;8.30;99.90;;;;;;5086597;28;20434;-49
2021/11/05 21:45:48;;;;;;;16.60;13.27;;;8.20;99.90;;;;;;5079569;28;20448;-49
2021/11/05 21:48:14;;;;;;;17.67;14.73;;;8.30;99.90;;;;;;5088079;28;20447;-49
2021/11/05 21:50:42;;;;;;;19.55;15.40;;;8.00;99.90;;;;;;5084750;28;20196;-49
2021/11/05 21:53:11;;;;;;;15.60;12.88;;;8.00;99.90;;;;;;5085354;28;20177;-49
2021/11/05 21:55:37;;;;;;;17.95;14.45;;;8.00;99.90;;;;;;5079501;28;20187;-50
2021/11/05 21:58:04;;;;;;;20.33;15.80;;;8.10;99.90;;;;;;5089523;28;20192;-50
2021/11/05 22:00:30;;;;;;;21.13;14.63;;;8.10;99.90;;;;;;5077653;28;20211;-49
2021/11/05 22:02:55;;;;;;;18.03;14.33;;;8.10;99.90;;;;;;5088762;28;20192;-49
2021/11/05 22:05:22;;;;;;;17.00;15.13;;;8.20;99.90;;;;;;5083211;28;20545;-49
2021/11/05 22:07:48;;;;;;;18.35;15.57;;;8.00;99.90;;;;;;5079983;28;20482;-50
2021/11/05 22:10:16;;;;;;;16.05;14.10;;;8.20;99.90;;;;;;5086097;28;20627;-50
2021/11/05 22:12:42;;;;;;;17.20;13.65;;;8.20;99.90;;;;;;5089186;28;20176;-50
2021/11/05 22:15:09;;;;;;;17.63;14.15;;;8.10;99.90;;;;;;5086797;28;20195;-50
2021/11/05 22:17:35;;;;;;;20.25;14.57;;;8.10;99.90;;;;;;5080367;28;20204;-50
2021/11/05 22:20:03;;;;;;;19.58;14.90;;;8.20;99.90;;;;;;5089025;28;20264;-50
2021/11/05 22:22:29;;;;;;;18.08;14.38;;;8.10;99.90;;;;;;5078977;28;20212;-50
2021/11/05 22:25:01;;;;;;;17.50;13.88;;;8.10;99.90;;;;;;5086692;28;20211;-50
2021/11/05 22:27:27;;;;;;;17.48;14.02;;;8.00;99.90;;;;;;5089664;28;20183;-50
2021/11/05 22:29:52;;;;;;;19.95;14.57;;;8.10;99.90;;;;;;5088256;28;20250;-50
2021/11/05 22:32:19;;;;;;;17.23;13.30;;;8.40;99.90;;;;;;5084547;28;20176;-50
2021/11/05 22:34:46;;;;;;;21.00;14.55;;;8.00;99.90;;;;;;5085077;28;21633;-49
2021/11/05 22:37:11;;;;;;;17.70;13.68;;;8.00;99.90;;;;;;5086180;28;20252;-50
2021/11/05 22:39:38;;;;;;;17.07;13.83;;;7.90;99.90;;;;;;5085238;28;20205;-50
2021/11/05 22:42:04;;;;;;;16.20;14.38;;;7.80;99.90;;;;;;5079030;28;20199;-50
2021/11/05 22:44:30;;;;;;;20.80;14.60;;;7.80;99.90;;;;;;5083365;28;20208;-50
2021/11/05 22:46:56;;;;;;;20.17;15.57;;;7.80;99.90;;;;;;5086275;28;20182;-50
2021/11/05 22:49:23;;;;;;;18.67;14.52;;;7.60;99.90;;;;;;5078091;28;20707;-49
2021/11/05 22:51:49;;;;;;;19.23;15.02;;;7.60;99.90;;;;;;5083358;28;20188;-49
2021/11/05 22:54:15;;;;;;;19.25;15.32;;;7.50;99.90;;;;;;5083959;28;20713;-49
2021/11/05 22:56:41;;;;;;;19.57;15.10;;;7.40;99.90;;;;;;5087702;28;20291;-50
2021/11/05 22:59:06;;;;;;;22.83;16.23;;;7.20;99.90;;;;;;5085815;28;20656;-49
2021/11/05 23:01:32;;;;;;;19.73;16.83;;;7.30;99.90;;;;;;5086174;28;20442;-49
2021/11/05 23:03:58;;;;;;;17.77;14.60;;;7.00;99.90;;;;;;5086059;28;20195;-49
2021/11/05 23:06:23;;;;;;;17.90;16.00;;;6.90;99.90;;;;;;5081259;28;20187;-49
2021/11/05 23:08:49;;;;;;;19.23;15.03;;;7.10;99.90;;;;;;5087876;28;20214;-49
2021/11/05 23:11:15;;;;;;;22.90;17.27;;;7.10;99.90;;;;;;5085461;28;20503;-49
2021/11/05 23:13:46;;;;;;;19.63;15.57;;;7.20;99.90;;;;;;5081993;28;20443;-49
2021/11/05 23:16:12;;;;;;;22.60;17.17;;;7.30;99.90;;;;;;5079828;28;20471;-49
2021/11/05 23:18:38;;;;;;;20.60;15.73;;;7.40;99.90;;;;;;5087724;28;20542;-49
2021/11/05 23:21:14;;;;;;;19.50;14.90;;;6.90;99.90;;;;;;5087124;28;20326;-49
2021/11/05 23:23:40;;;;;;;19.70;15.93;;;6.90;99.90;;;;;;5080380;28;20617;-49
2021/11/05 23:26:06;;;;;;;18.10;14.93;;;6.70;99.90;;;;;;5078550;28;20222;-48
2021/11/05 23:28:32;;;;;;;17.95;15.02;;;6.70;99.90;;;;;;5088935;28;20442;-49
2021/11/05 23:30:58;;;;;;;18.60;13.30;;;6.60;99.90;;;;;;5080134;28;20203;-49
2021/11/05 23:33:24;;;;;;;16.30;14.65;;;6.60;99.90;;;;;;5084272;28;20433;-49
2021/11/05 23:35:50;;;;;;;22.60;15.73;;;6.60;99.90;;;;;;5087927;28;20587;-49
2021/11/05 23:38:17;;;;;;;20.52;15.13;;;6.70;99.90;;;;;;5081849;28;20990;-49
2021/11/05 23:40:44;;;;;;;20.67;15.27;;;6.70;99.90;;;;;;5083812;28;20207;-50
2021/11/05 23:43:09;;;;;;;20.58;14.25;;;6.70;99.90;;;;;;5091785;28;20175;-48
2021/11/05 23:45:35;;;;;;;19.57;14.03;;;6.20;99.90;;;;;;5091138;28;20218;-49
2021/11/05 23:48:03;;;;;;;19.00;14.43;;;6.50;99.90;;;;;;5090205;28;20195;-49
2021/11/05 23:50:30;;;;;;;17.40;14.10;;;6.50;99.90;;;;;;5084215;28;20865;-49
2021/11/05 23:52:55;;;;;;;18.10;15.00;;;6.30;99.90;;;;;;5085147;28;20187;-49
2021/11/05 23:55:21;;;;;;;19.20;14.50;;;6.40;99.90;;;;;;5086751;28;20671;-49
2021/11/05 23:57:48;;;;;;;16.87;13.80;;;6.30;99.90;;;;;;5092035;28;20261;-49
